Kungrad, Uzbekistan
Current Conditions -  °F | °C
As of 2:00 AM on Sunday 26 Oct 2014 (Local Time) from UTNN Reporting Station
Drizzle Drizzle  
Wind Chill: 24°   Ceiling: 700
Heat Index: 34°   Visibility: 5mi
Dew Point: 30°   Wind: 13mph
Humidity: 87%   Direction: 340°NNW
Pressure: 30.12"   Gusts: NA
Location:  43.07°N, 58.91°E
Report Text: UTNN 252100Z 34006MPS 8000 -DZ OVC007 01/M01 Q1020 R33/CLRD60NOSIG
Loading
Personal Weather Stations






























Interactive Weather Map
Tropical Storm Tracking
New forecast layout! Learn more

10-Day Weather Forecast

Advertisements
Track Severe Weather on mobile